KHIE/HIE METAR and TAF weather

Enter ICAO airport designator
Station Type Date Time Source
KHIE METAR 2020/06/03 20:52 UTC NOAA

KHIE 032052Z AUTO 00000KT 8SM -RA SCT008 OVC014 14/13 A2956 RMK AO2 SLP013 P0001 60002 T01440128 51008


Station Type Date Time Source
KHIE Decoded METAR 2020/06/03 20:52 UTC NOAA

MT WASHINGTON REGIONAL AIRPORT , NH, United States (KHIE) 44-22N 71-33W 318M
Jun 03, 2020 - 04:52 PM EDT / 2020.06.03 2052 UTC
Wind: Calm:0
Visibility: 8 mile(s):0
Sky conditions: overcast
Weather: light rain
Precipitation last hour: 0.01 inches
Temperature: 57.9 F (14.4 C)
Dew Point: 55.0 F (12.8 C)
Relative Humidity: 90%
Pressure (altimeter): 29.56 in. Hg (1001 hPa)
Pressure tendency: 0.02 inches (0.8 hPa) higher than three hours ago
ob: KHIE 032052Z AUTO 00000KT 8SM -RA SCT008 OVC014 14/13 A2956 RMK AO2 SLP013 P0001 60002 T01440128 51008
cycle: 21

Station Type Date Time Source
KHIE TAF 2020/06/03 20:21 UTC NOAA

TAF
AMD KHIE 032019Z 0320/0418 00000KT P6SM -RA BKN013 OVC023
FM040100 00000KT P6SM OVC050
FM040400 00000KT P6SM OVC025
FM040500 00000KT P6SM OVC015
FM040800 00000KT P6SM OVC007
FM041500 28008KT P6SM OVC050
FM041600 28010G16KT P6SM OVC050

Example: see airport list